Time;durP1;ratioP1;P1;durP2;ratioP2;P2;SDS_P1;SDS_P2;PMS_P1;PMS_P2;Temp;Humidity;BMP_temperature;BMP_pressure;BME280_temperature;BME280_humidity;BME280_pressure;Samples;Min_cycle;Max_cycle;Signal;HPM_P1;HPM_P2
2022/09/09 00:01:25;;;;;;;5.30;3.23;;;17.60;1.00;;;;;;4974707;28;20756;-66
2022/09/09 00:04:01;;;;;;;4.93;2.80;;;17.60;1.00;;;;;;4974579;28;20416;-66
2022/09/09 00:06:36;;;;;;;9.93;3.03;;;17.50;1.00;;;;;;4976010;28;20419;-66
2022/09/09 00:09:06;;;;;;;5.63;2.90;;;17.50;1.00;;;;;;4975178;28;20439;-66
2022/09/09 00:12:03;;;;;;;7.10;2.97;;;17.50;1.00;;;;;;4975470;28;20417;-66
2022/09/09 00:14:39;;;;;;;7.43;2.90;;;17.30;1.00;;;;;;4975366;28;20445;-66
2022/09/09 00:17:12;;;;;;;5.40;2.63;;;17.20;1.00;;;;;;4976900;28;20404;-66
2022/09/09 00:20:01;;;;;;;7.80;2.77;;;16.60;16.20;;;;;;4990695;28;20421;-66
2022/09/09 00:22:32;;;;;;;7.10;3.30;;;16.10;1.00;;;;;;4993248;28;20393;-66
2022/09/09 00:25:48;;;;;;;5.17;2.40;;;16.10;1.00;;;;;;4984729;28;20417;-66
2022/09/09 00:28:19;;;;;;;4.83;3.00;;;16.10;1.00;;;;;;4967061;28;20456;-66
2022/09/09 00:30:48;;;;;;;4.07;2.83;;;16.20;1.00;;;;;;4978593;28;20759;-66
2022/09/09 00:33:18;;;;;;;7.40;2.73;;;16.50;1.00;;;;;;4976852;28;20445;-66
2022/09/09 00:36:00;;;;;;;5.70;3.20;;;16.60;1.00;;;;;;4974792;28;20409;-65
2022/09/09 00:38:40;;;;;;;3.67;2.60;;;16.70;1.00;;;;;;4973843;28;20636;-66
2022/09/09 00:41:26;;;;;;;5.70;3.00;;;16.70;1.00;;;;;;4974472;28;20397;-65
2022/09/09 00:44:01;;;;;;;7.37;3.20;;;16.70;1.00;;;;;;4973148;28;20537;-65
2022/09/09 00:46:48;;;;;;;3.67;2.30;;;16.80;1.00;;;;;;4973820;28;20417;-65
2022/09/09 00:49:38;;;;;;;5.37;2.57;;;16.90;1.00;;;;;;4973371;28;20429;-65
2022/09/09 00:52:30;;;;;;;9.33;2.67;;;16.90;99.90;;;;;;4973437;28;20413;-67
2022/09/09 00:55:19;;;;;;;10.57;3.43;;;16.80;1.00;;;;;;4972250;28;20927;-64
2022/09/09 00:57:48;;;;;;;4.63;2.53;;;16.80;1.00;;;;;;4972083;28;20487;-66
2022/09/09 01:00:20;;;;;;;9.63;2.67;;;16.80;1.00;;;;;;4972406;28;20432;-65
2022/09/09 01:03:20;;;;;;;6.40;2.83;;;16.70;1.00;;;;;;4972449;28;20494;-66
2022/09/09 01:06:01;;;;;;;11.70;2.70;;;16.70;1.00;;;;;;4972472;28;20462;-64
2022/09/09 01:08:52;;;;;;;9.53;3.20;;;16.70;1.00;;;;;;4971962;28;20432;-66
2022/09/09 01:11:38;;;;;;;8.60;3.03;;;16.70;1.00;;;;;;4971883;28;20435;-65
2022/09/09 01:14:30;;;;;;;18.87;3.30;;;16.80;1.00;;;;;;4971977;28;20459;-65
2022/09/09 01:17:00;;;;;;;6.27;3.90;;;16.80;1.00;;;;;;4971829;28;20406;-66
2022/09/09 01:19:58;;;;;;;6.57;2.93;;;16.70;1.00;;;;;;4971586;28;20492;-66
2022/09/09 01:22:52;;;;;;;9.53;4.03;;;16.70;1.00;;;;;;4971071;28;20436;-65
2022/09/09 01:25:36;;;;;;;5.93;2.77;;;16.70;1.00;;;;;;4971353;28;20409;-66
2022/09/09 01:28:08;;;;;;;6.27;3.57;;;16.80;99.90;;;;;;4971611;28;20460;-65
2022/09/09 01:30:38;;;;;;;11.03;3.57;;;16.80;99.90;;;;;;4971676;28;20407;-66
2022/09/09 01:33:05;;;;;;;13.67;4.20;;;16.80;99.90;;;;;;4971627;28;20948;-65
2022/09/09 01:35:50;;;;;;;11.00;3.77;;;16.80;99.90;;;;;;4971530;28;20492;-66
2022/09/09 01:38:17;;;;;;;5.83;3.10;;;16.80;99.90;;;;;;4970734;28;20528;-65
2022/09/09 01:40:43;;;;;;;4.90;3.30;;;16.50;99.90;;;;;;4971270;28;20705;-66
2022/09/09 01:43:09;;;;;;;3.90;2.50;;;16.50;99.90;;;;;;4971698;28;20839;-66
2022/09/09 01:45:35;;;;;;;4.03;3.00;;;16.40;1.00;;;;;;4971451;28;20828;-66
2022/09/09 01:48:02;;;;;;;4.50;2.63;;;16.00;99.90;;;;;;4971146;28;20429;-66
2022/09/09 01:50:28;;;;;;;5.73;2.60;;;15.80;1.00;;;;;;4971232;28;20272;-65
2022/09/09 01:52:59;;;;;;;5.67;3.00;;;15.50;99.90;;;;;;4971543;28;20511;-66
2022/09/09 01:55:56;;;;;;;4.73;2.43;;;15.60;99.90;;;;;;4972351;28;20405;-66
2022/09/09 01:58:58;;;;;;;6.90;3.20;;;15.80;1.00;;;;;;4971429;28;20429;-65
2022/09/09 02:01:41;;;;;;;4.10;2.63;;;15.80;99.90;;;;;;4968999;28;20417;-64
2022/09/09 02:04:27;;;;;;;4.30;2.63;;;15.80;99.90;;;;;;4971300;28;20785;-65
2022/09/09 02:06:56;;;;;;;5.77;3.07;;;15.90;99.90;;;;;;4971135;28;20508;-65
2022/09/09 02:09:25;;;;;;;10.97;4.37;;;16.00;1.00;;;;;;4970998;28;20429;-65
2022/09/09 02:11:59;;;;;;;10.40;5.00;;;16.00;1.00;;;;;;4971663;28;20432;-65
2022/09/09 02:14:36;;;;;;;21.47;4.40;;;16.00;1.00;;;;;;4971074;28;20409;-65
2022/09/09 02:17:08;;;;;;;7.70;3.70;;;16.20;99.90;;;;;;4971071;28;20747;-65
2022/09/09 02:19:42;;;;;;;5.30;3.43;;;16.20;99.90;;;;;;4970938;28;20528;-66
2022/09/09 02:22:07;;;;;;;7.00;3.10;;;15.90;1.00;;;;;;4971349;28;20425;-65
2022/09/09 02:24:37;;;;;;;4.73;2.80;;;15.80;1.00;;;;;;4970650;28;20809;-65
2022/09/09 02:27:07;;;;;;;9.80;3.40;;;15.90;1.00;;;;;;4970709;28;20545;-66
2022/09/09 02:29:41;;;;;;;5.63;2.77;;;15.90;1.00;;;;;;4970787;28;20520;-66
2022/09/09 02:32:12;;;;;;;8.03;3.00;;;15.90;1.00;;;;;;4971614;28;20413;-65
2022/09/09 02:34:44;;;;;;;5.77;2.90;;;16.00;1.00;;;;;;4971212;28;20504;-65
2022/09/09 02:37:11;;;;;;;8.87;4.20;;;16.00;1.00;;;;;;4970888;28;20417;-65
2022/09/09 02:39:37;;;;;;;7.07;3.33;;;16.10;99.90;;;;;;4971005;28;20456;-67
2022/09/09 02:42:04;;;;;;;6.27;3.00;;;16.20;99.90;;;;;;4971313;28;20415;-66
2022/09/09 02:44:30;;;;;;;6.93;2.53;;;16.20;77.10;;;;;;4971051;28;20205;-66
2022/09/09 02:47:12;;;;;;;7.60;3.17;;;16.20;56.70;;;;;;4970610;28;20779;-67
2022/09/09 02:50:08;;;;;;;5.03;3.27;;;16.20;25.20;;;;;;4970728;28;20449;-67
2022/09/09 02:52:59;;;;;;;8.83;3.57;;;16.00;49.60;;;;;;4971279;28;20544;-66
2022/09/09 02:55:56;;;;;;;11.03;3.00;;;16.20;33.40;;;;;;4970939;28;20790;-67
2022/09/09 02:58:23;;;;;;;9.17;3.60;;;16.10;1.00;;;;;;4970013;28;20913;-67
2022/09/09 03:00:50;;;;;;;6.80;3.30;;;16.00;1.00;;;;;;4970897;28;20412;-67
2022/09/09 03:03:17;;;;;;;8.43;2.90;;;16.00;1.00;;;;;;4969718;28;20429;-66
2022/09/09 03:05:44;;;;;;;5.17;3.10;;;16.10;1.00;;;;;;4971935;28;20536;-67
2022/09/09 03:08:11;;;;;;;8.60;3.60;;;16.10;1.00;;;;;;4974129;28;20479;-67
2022/09/09 03:10:36;;;;;;;7.00;2.90;;;16.10;1.00;;;;;;4972713;28;20918;-67
2022/09/09 03:13:05;;;;;;;7.80;3.77;;;16.10;1.00;;;;;;4974119;28;20491;-67
2022/09/09 03:15:31;;;;;;;6.03;2.40;;;16.20;1.00;;;;;;4973399;28;20169;-67
2022/09/09 03:17:59;;;;;;;12.27;2.97;;;16.20;1.00;;;;;;4969557;28;20521;-67
2022/09/09 03:20:26;;;;;;;6.07;2.40;;;16.20;1.00;;;;;;4972233;28;20522;-67
2022/09/09 03:22:54;;;;;;;21.70;4.20;;;16.10;1.00;;;;;;4974758;28;20559;-66
2022/09/09 03:25:20;;;;;;;21.07;4.63;;;16.20;1.00;;;;;;4974025;28;20409;-66
2022/09/09 03:27:45;;;;;;;4.73;2.93;;;16.30;1.00;;;;;;4973909;28;20412;-66
2022/09/09 03:30:11;;;;;;;6.20;2.90;;;16.30;1.00;;;;;;4973986;28;20427;-66
2022/09/09 03:32:37;;;;;;;16.30;4.40;;;16.10;1.00;;;;;;4974468;28;20296;-66
2022/09/09 03:35:03;;;;;;;4.90;2.57;;;16.10;1.00;;;;;;4974408;28;20188;-67
2022/09/09 03:37:29;;;;;;;14.60;2.93;;;16.10;1.00;;;;;;4973793;28;20580;-67
2022/09/09 03:39:55;;;;;;;3.60;3.07;;;16.10;1.00;;;;;;4973094;28;20540;-66
2022/09/09 03:42:21;;;;;;;9.50;2.87;;;16.10;1.00;;;;;;4973887;28;20182;-66
2022/09/09 03:44:49;;;;;;;7.57;2.20;;;15.90;50.70;;;;;;4973899;28;20174;-66
2022/09/09 03:47:16;;;;;;;6.13;2.10;;;15.90;92.90;;;;;;4973646;28;20444;-66
2022/09/09 03:49:42;;;;;;;8.27;2.53;;;16.00;80.20;;;;;;4973498;28;20436;-67
2022/09/09 03:52:09;;;;;;;8.80;2.67;;;16.00;98.40;;;;;;4974227;28;20964;-67
2022/09/09 03:54:35;;;;;;;6.70;3.87;;;16.10;99.90;;;;;;4973189;28;20771;-66
2022/09/09 03:57:01;;;;;;;8.83;2.90;;;16.10;99.90;;;;;;4973285;28;20421;-67
2022/09/09 03:59:27;;;;;;;9.37;2.90;;;16.10;99.90;;;;;;4973279;28;20798;-66
2022/09/09 04:01:53;;;;;;;5.67;3.30;;;16.10;99.90;;;;;;4973334;28;20413;-66
2022/09/09 04:04:19;;;;;;;5.83;3.33;;;16.00;99.90;;;;;;4973357;28;20181;-66
2022/09/09 04:06:48;;;;;;;11.13;3.73;;;16.10;1.00;;;;;;4973798;28;20432;-66
2022/09/09 04:09:14;;;;;;;9.33;3.20;;;16.10;99.90;;;;;;4972410;28;20482;-66
2022/09/09 04:11:39;;;;;;;13.90;4.17;;;16.20;1.00;;;;;;4973836;28;20989;-66
2022/09/09 04:14:05;;;;;;;23.47;4.20;;;16.20;1.00;;;;;;4973151;28;20212;-66
2022/09/09 04:16:32;;;;;;;16.03;4.07;;;16.10;99.90;;;;;;4975740;28;20193;-66
2022/09/09 04:18:59;;;;;;;7.73;3.90;;;16.10;1.00;;;;;;4970828;28;20524;-67
2022/09/09 04:21:25;;;;;;;11.33;2.97;;;16.20;1.00;;;;;;4980207;28;20432;-67
2022/09/09 04:23:51;;;;;;;16.60;5.57;;;16.10;1.00;;;;;;4976866;28;20428;-66
2022/09/09 04:26:17;;;;;;;6.80;3.53;;;16.20;99.90;;;;;;4991875;28;20428;-66
2022/09/09 04:28:43;;;;;;;16.10;4.73;;;16.20;99.90;;;;;;4990653;28;20200;-65
2022/09/09 04:31:17;;;;;;;12.97;4.43;;;16.20;99.90;;;;;;4992616;28;20485;-64
2022/09/09 04:33:43;;;;;;;11.90;3.40;;;16.30;1.00;;;;;;4991728;28;20206;-67
2022/09/09 04:36:09;;;;;;;11.33;3.37;;;16.20;99.90;;;;;;4991085;28;20408;-67
2022/09/09 04:38:35;;;;;;;13.00;3.53;;;16.30;1.00;;;;;;4986648;28;20666;-65
2022/09/09 04:41:01;;;;;;;10.20;3.13;;;16.10;1.00;;;;;;4988399;28;20177;-65
2022/09/09 04:43:27;;;;;;;10.10;3.60;;;15.90;99.90;;;;;;4989931;28;20463;-65
2022/09/09 04:45:52;;;;;;;11.80;3.53;;;15.90;99.90;;;;;;4996499;28;20184;-65
2022/09/09 04:48:18;;;;;;;10.47;3.27;;;16.00;1.00;;;;;;4997280;28;20270;-65
2022/09/09 04:50:53;;;;;;;8.70;4.23;;;16.00;1.00;;;;;;5011836;28;20822;-65
2022/09/09 04:53:18;;;;;;;14.13;3.23;;;16.00;99.90;;;;;;5008137;28;20450;-66
2022/09/09 04:55:44;;;;;;;17.33;3.90;;;16.10;99.90;;;;;;4994797;28;20423;-66
2022/09/09 04:58:09;;;;;;;25.97;4.80;;;16.10;99.90;;;;;;4993231;28;20681;-66
2022/09/09 05:00:35;;;;;;;16.93;5.57;;;16.20;1.00;;;;;;4996603;28;20619;-65
2022/09/09 05:03:05;;;;;;;16.77;3.67;;;16.20;99.90;;;;;;4987010;28;20181;-65
2022/09/09 05:05:36;;;;;;;20.53;4.47;;;16.20;1.00;;;;;;4995226;28;20292;-64
2022/09/09 05:08:06;;;;;;;16.43;4.47;;;16.10;99.90;;;;;;4984883;28;20448;-66
2022/09/09 05:10:33;;;;;;;36.30;6.03;;;16.10;1.00;;;;;;4994021;28;20880;-66
2022/09/09 05:12:59;;;;;;;16.37;5.30;;;16.10;1.00;;;;;;4988840;28;20474;-66
2022/09/09 05:15:24;;;;;;;18.63;4.87;;;16.20;99.90;;;;;;4997579;28;20407;-66
2022/09/09 05:17:52;;;;;;;19.60;5.43;;;16.10;99.90;;;;;;4990351;28;20220;-64
2022/09/09 05:20:18;;;;;;;42.40;8.30;;;16.10;1.00;;;;;;4988603;28;20223;-65
2022/09/09 05:22:44;;;;;;;33.40;6.50;;;16.00;1.00;;;;;;4992254;28;20973;-66
2022/09/09 05:25:09;;;;;;;42.10;8.77;;;15.90;99.90;;;;;;4989957;28;20424;-64
2022/09/09 05:27:35;;;;;;;25.33;5.60;;;15.90;1.00;;;;;;4995416;28;20192;-66
2022/09/09 05:30:01;;;;;;;36.10;7.20;;;16.00;99.90;;;;;;4987245;28;20176;-65
2022/09/09 05:32:27;;;;;;;28.53;6.30;;;16.00;1.00;;;;;;4987701;28;20204;-66
2022/09/09 05:34:53;;;;;;;21.23;5.73;;;16.10;99.90;;;;;;4987955;28;20168;-66
2022/09/09 05:37:19;;;;;;;29.63;7.30;;;16.10;99.90;;;;;;4985729;28;21354;-66
2022/09/09 05:39:44;;;;;;;33.73;6.13;;;16.20;1.00;;;;;;4985573;28;20551;-65
2022/09/09 05:42:10;;;;;;;23.63;5.47;;;16.10;99.90;;;;;;4988380;28;20172;-65
2022/09/09 05:44:37;;;;;;;22.73;5.10;;;16.00;99.90;;;;;;4987536;28;20177;-66
2022/09/09 05:47:03;;;;;;;27.13;6.37;;;15.90;1.00;;;;;;4987876;28;20211;-64
2022/09/09 05:49:28;;;;;;;40.03;7.30;;;15.90;1.00;;;;;;4987911;28;20464;-66
2022/09/09 05:51:54;;;;;;;26.97;6.40;;;15.90;1.00;;;;;;4988086;28;20455;-65
2022/09/09 05:54:20;;;;;;;54.17;8.57;;;15.90;1.00;;;;;;4986873;28;20196;-65
2022/09/09 05:56:45;;;;;;;32.07;6.80;;;15.90;1.00;;;;;;4987962;28;20248;-65
2022/09/09 05:59:12;;;;;;;24.23;7.03;;;15.90;1.00;;;;;;4987431;28;20196;-66
2022/09/09 06:01:42;;;;;;;23.13;6.07;;;15.80;99.90;;;;;;4988093;28;20223;-66
2022/09/09 06:04:08;;;;;;;21.03;6.50;;;15.80;1.00;;;;;;4988308;28;20427;-66
2022/09/09 06:06:36;;;;;;;32.50;7.73;;;16.00;99.90;;;;;;4987697;28;20431;-67
2022/09/09 06:09:06;;;;;;;47.47;8.73;;;16.10;99.90;;;;;;4986467;28;20436;-65
2022/09/09 06:11:35;;;;;;;20.57;5.90;;;16.10;99.90;;;;;;4987588;28;20443;-65
2022/09/09 06:14:02;;;;;;;29.17;6.83;;;16.20;99.90;;;;;;4987804;28;20455;-66
2022/09/09 06:16:29;;;;;;;29.03;6.33;;;16.20;1.00;;;;;;4987835;28;20889;-66
2022/09/09 06:18:56;;;;;;;32.93;6.37;;;16.30;1.00;;;;;;4986300;28;21308;-66
2022/09/09 06:21:23;;;;;;;30.07;7.03;;;16.40;99.90;;;;;;4987315;28;20400;-66
2022/09/09 06:23:50;;;;;;;27.03;5.00;;;16.40;99.90;;;;;;4990899;28;20919;-66
2022/09/09 06:26:25;;;;;;;30.73;6.40;;;16.40;99.90;;;;;;4989708;28;20420;-66
2022/09/09 06:28:52;;;;;;;37.73;7.27;;;16.30;1.00;;;;;;4989434;28;20879;-65
2022/09/09 06:31:23;;;;;;;31.37;7.70;;;16.30;1.00;;;;;;4989881;28;20777;-66
2022/09/09 06:33:51;;;;;;;71.70;11.43;;;16.30;99.90;;;;;;4989924;28;20455;-65
2022/09/09 06:36:19;;;;;;;16.43;4.83;;;16.40;99.90;;;;;;4989264;28;20420;-65
2022/09/09 06:38:45;;;;;;;19.00;4.87;;;16.50;1.00;;;;;;4988671;28;20444;-65
2022/09/09 06:41:14;;;;;;;26.57;5.40;;;16.50;99.90;;;;;;4992066;28;20771;-66
2022/09/09 06:43:40;;;;;;;17.27;4.60;;;16.50;1.00;;;;;;4994081;28;20416;-65
2022/09/09 06:46:16;;;;;;;29.53;6.20;;;16.60;1.00;;;;;;4994185;28;20407;-66
2022/09/09 06:48:44;;;;;;;12.50;4.90;;;16.60;99.90;;;;;;4993286;28;20428;-65
2022/09/09 06:51:24;;;;;;;105.63;12.40;;;16.70;1.00;;;;;;4994354;28;20514;-67
2022/09/09 06:53:58;;;;;;;24.63;6.73;;;16.80;1.00;;;;;;4993574;28;20469;-64
2022/09/09 06:56:31;;;;;;;23.60;6.03;;;16.80;97.60;;;;;;4994187;28;20415;-64
2022/09/09 06:59:00;;;;;;;12.43;4.83;;;16.90;99.90;;;;;;4993866;28;20427;-65
2022/09/09 07:01:30;;;;;;;12.30;4.40;;;17.20;51.20;;;;;;4990011;28;20504;-65
2022/09/09 07:03:58;;;;;;;18.47;3.53;;;17.90;1.00;;;;;;4974324;28;20428;-65
2022/09/09 07:06:30;;;;;;;19.43;4.20;;;18.90;99.90;;;;;;4974480;28;20531;-66
2022/09/09 07:09:03;;;;;;;8.50;3.57;;;19.90;1.00;;;;;;4971573;28;20511;-66
2022/09/09 07:11:41;;;;;;;49.07;9.07;;;20.60;8.80;;;;;;4974704;28;20412;-66
2022/09/09 07:14:07;;;;;;;39.40;6.60;;;20.70;1.00;;;;;;4974476;28;20462;-65
2022/09/09 07:16:36;;;;;;;9.90;4.00;;;21.00;1.00;;;;;;4974561;28;20412;-66
2022/09/09 07:19:03;;;;;;;27.90;5.03;;;21.30;1.00;;;;;;5006261;28;20440;-66
2022/09/09 07:21:31;;;;;;;14.53;4.47;;;21.60;1.00;;;;;;5013349;28;20449;-66
2022/09/09 07:23:57;;;;;;;6.93;2.37;;;22.00;1.00;;;;;;5012551;28;20434;-65
2022/09/09 07:26:25;;;;;;;25.43;4.43;;;22.30;1.00;;;;;;5012700;28;20415;-65
2022/09/09 07:28:51;;;;;;;21.23;3.67;;;22.70;1.00;;;;;;5011962;28;20463;-66
2022/09/09 07:31:20;;;;;;;19.30;5.37;;;22.60;1.00;;;;;;5012964;28;20414;-66
2022/09/09 07:33:47;;;;;;;13.73;4.43;;;22.10;1.00;;;;;;5012560;28;20467;-65
2022/09/09 07:36:15;;;;;;;11.30;4.07;;;21.60;1.00;;;;;;5013238;28;20411;-66
2022/09/09 07:38:45;;;;;;;9.17;3.47;;;21.10;1.00;;;;;;5002724;28;20529;-65
2022/09/09 07:41:16;;;;;;;8.13;3.40;;;20.70;1.00;;;;;;4993403;28;20435;-66
2022/09/09 07:43:43;;;;;;;8.13;3.43;;;20.80;1.00;;;;;;4992676;28;20483;-66
2022/09/09 07:46:10;;;;;;;13.77;4.60;;;20.90;1.00;;;;;;4991652;28;20455;-65
2022/09/09 07:48:36;;;;;;;7.03;3.03;;;20.80;1.00;;;;;;4994009;28;20467;-66
2022/09/09 07:51:18;;;;;;;5.90;3.07;;;21.10;1.00;;;;;;4992575;28;20904;-66
2022/09/09 07:53:45;;;;;;;81.60;9.87;;;21.10;1.00;;;;;;4991780;28;20462;-65
2022/09/09 07:56:14;;;;;;;20.73;4.47;;;21.20;1.00;;;;;;4992549;28;20916;-68
2022/09/09 07:58:40;;;;;;;10.50;3.10;;;21.40;1.00;;;;;;4991536;28;20439;-67
2022/09/09 08:01:19;;;;;;;4.97;2.80;;;21.40;1.00;;;;;;4992259;28;20432;-67
2022/09/09 08:03:46;;;;;;;24.47;4.70;;;21.10;1.00;;;;;;4992106;28;20908;-68
2022/09/09 08:06:13;;;;;;;39.93;6.23;;;21.30;1.00;;;;;;4989939;28;20423;-66
2022/09/09 08:08:41;;;;;;;26.33;5.50;;;21.50;1.00;;;;;;4991387;28;20447;-66
2022/09/09 08:11:14;;;;;;;48.67;8.43;;;21.50;1.00;;;;;;4992328;28;20414;-66
2022/09/09 08:13:40;;;;;;;24.77;4.93;;;21.70;1.00;;;;;;4991960;28;20517;-66
2022/09/09 08:16:27;;;;;;;7.57;3.10;;;21.70;1.00;;;;;;4991467;28;20432;-66
2022/09/09 08:18:54;;;;;;;8.93;3.00;;;21.50;1.00;;;;;;4991275;28;20505;-66
2022/09/09 08:21:27;;;;;;;11.20;3.30;;;21.70;1.00;;;;;;4992175;28;20400;-65
2022/09/09 08:23:55;;;;;;;9.60;2.97;;;21.70;1.00;;;;;;4990799;28;20412;-66
2022/09/09 08:26:27;;;;;;;8.93;2.70;;;21.50;1.00;;;;;;4992256;28;20451;-65
2022/09/09 08:28:56;;;;;;;9.50;3.17;;;22.20;1.00;;;;;;4990880;28;20452;-65
2022/09/09 08:31:44;;;;;;;6.50;2.97;;;23.00;1.00;;;;;;4991784;28;20436;-65
2022/09/09 08:34:10;;;;;;;11.07;4.00;;;23.20;1.00;;;;;;4991249;28;20479;-66
2022/09/09 08:36:40;;;;;;;12.60;3.80;;;22.90;1.00;;;;;;4992009;28;20499;-66
2022/09/09 08:39:08;;;;;;;6.93;2.80;;;22.60;1.00;;;;;;4990416;28;20535;-65
2022/09/09 08:41:46;;;;;;;10.60;3.33;;;22.40;1.00;;;;;;4991891;28;20444;-64
2022/09/09 08:44:27;;;;;;;14.77;3.83;;;22.40;1.00;;;;;;4991186;28;20476;-64
2022/09/09 08:47:23;;;;;;;14.40;3.30;;;22.70;1.00;;;;;;4991245;28;20515;-64
2022/09/09 08:49:58;;;;;;;10.40;2.73;;;23.00;1.00;;;;;;4998470;28;21033;-64
2022/09/09 08:52:27;;;;;;;3.57;2.43;;;23.40;99.90;;;;;;4991671;28;20537;-64
2022/09/09 08:55:15;;;;;;;9.63;2.73;;;23.40;99.90;;;;;;4990273;28;20526;-66
2022/09/09 08:57:41;;;;;;;12.50;3.27;;;23.40;99.90;;;;;;4984779;28;20436;-64
2022/09/09 09:00:10;;;;;;;11.13;2.47;;;23.70;99.90;;;;;;4991342;28;20415;-64
2022/09/09 09:02:49;;;;;;;15.23;3.40;;;23.50;99.90;;;;;;4990947;28;20594;-65
2022/09/09 09:05:23;;;;;;;9.10;2.93;;;23.80;99.90;;;;;;4991729;28;20431;-66
2022/09/09 09:08:12;;;;;;;12.57;3.00;;;23.80;99.90;;;;;;4992141;28;20880;-65
2022/09/09 09:10:51;;;;;;;11.20;3.60;;;23.90;99.90;;;;;;4991897;28;20439;-65
2022/09/09 09:13:41;;;;;;;7.70;4.00;;;24.10;99.90;;;;;;4989606;28;20467;-64
2022/09/09 09:16:21;;;;;;;18.70;4.33;;;24.20;99.90;;;;;;4991738;28;20431;-65
2022/09/09 09:18:47;;;;;;;20.37;3.30;;;24.10;99.90;;;;;;4989165;28;20877;-66
2022/09/09 09:21:43;;;;;;;9.20;3.03;;;23.60;99.90;;;;;;4991014;28;20763;-65
2022/09/09 09:24:19;;;;;;;22.43;5.90;;;23.90;99.90;;;;;;4985144;28;20452;-65
2022/09/09 09:26:47;;;;;;;19.17;3.83;;;24.20;99.90;;;;;;4991380;28;20761;-65
2022/09/09 09:29:18;;;;;;;8.23;2.97;;;24.10;99.90;;;;;;4989482;28;20455;-65
2022/09/09 09:31:52;;;;;;;17.53;3.40;;;24.00;99.90;;;;;;4991221;28;20408;-65
2022/09/09 09:34:18;;;;;;;13.80;3.30;;;23.80;99.90;;;;;;4991152;28;21057;-67
2022/09/09 09:36:51;;;;;;;16.30;3.40;;;23.60;99.90;;;;;;4991462;28;20479;-67
2022/09/09 09:39:27;;;;;;;6.80;2.47;;;23.60;99.90;;;;;;4983925;28;20291;-66
2022/09/09 09:41:54;;;;;;;8.53;2.47;;;23.60;99.90;;;;;;4991024;28;20407;-66
2022/09/09 09:44:31;;;;;;;4.67;2.23;;;23.70;99.90;;;;;;4990248;28;20491;-64
2022/09/09 09:47:06;;;;;;;9.27;2.60;;;23.90;99.90;;;;;;4987576;28;20462;-66
2022/09/09 09:49:32;;;;;;;18.90;2.90;;;24.30;99.90;;;;;;4982318;28;20502;-64
2022/09/09 09:52:03;;;;;;;14.53;3.17;;;24.50;99.90;;;;;;4989319;28;20427;-65
2022/09/09 09:54:37;;;;;;;8.77;2.90;;;24.70;99.90;;;;;;4990573;28;20605;-65
2022/09/09 09:57:10;;;;;;;18.97;2.40;;;24.40;99.90;;;;;;4990817;28;20423;-65
2022/09/09 09:59:39;;;;;;;12.83;2.43;;;24.50;99.90;;;;;;4990563;28;20432;-65
2022/09/09 10:02:14;;;;;;;7.33;2.50;;;24.70;99.90;;;;;;4990853;28;20404;-64
2022/09/09 10:04:41;;;;;;;9.97;2.17;;;24.70;99.90;;;;;;4990410;28;20435;-65
2022/09/09 10:07:33;;;;;;;9.27;2.47;;;24.70;99.90;;;;;;4990215;28;20412;-65
2022/09/09 10:09:59;;;;;;;12.50;3.00;;;24.70;99.90;;;;;;4989529;28;20451;-66
2022/09/09 10:12:53;;;;;;;10.97;2.43;;;24.70;99.90;;;;;;4990438;28;20405;-65
2022/09/09 10:15:38;;;;;;;50.00;7.00;;;24.70;99.90;;;;;;5020009;28;20259;-65
2022/09/09 10:18:35;;;;;;;4.43;2.40;;;24.80;99.90;;;;;;4989754;28;20452;-65
2022/09/09 10:21:20;;;;;;;24.50;4.00;;;24.70;99.90;;;;;;4990340;28;20418;-64
2022/09/09 10:24:10;;;;;;;18.17;2.83;;;24.60;99.90;;;;;;4989796;28;20488;-65
2022/09/09 10:26:52;;;;;;;15.30;2.60;;;24.70;99.90;;;;;;4990813;28;20423;-64
2022/09/09 10:29:27;;;;;;;10.13;2.70;;;24.70;99.90;;;;;;4989891;28;20428;-64
2022/09/09 10:32:07;;;;;;;16.03;2.50;;;24.80;99.90;;;;;;4990378;28;20407;-64
2022/09/09 10:34:54;;;;;;;9.27;2.00;;;24.70;99.90;;;;;;4990121;28;20423;-65
2022/09/09 10:37:44;;;;;;;15.37;2.53;;;24.60;99.90;;;;;;4990009;28;20396;-65
2022/09/09 10:40:12;;;;;;;13.03;2.23;;;24.30;99.90;;;;;;4990120;28;20920;-66
2022/09/09 10:42:38;;;;;;;10.23;3.50;;;24.10;99.90;;;;;;5001654;28;20407;-65
2022/09/09 10:45:04;;;;;;;26.13;4.70;;;24.00;99.90;;;;;;5010074;28;21034;-65
2022/09/09 10:47:59;;;;;;;19.87;4.00;;;23.90;99.90;;;;;;5009121;28;20462;-65
2022/09/09 10:50:36;;;;;;;13.70;2.63;;;23.80;99.90;;;;;;5009122;28;20169;-64
2022/09/09 10:53:23;;;;;;;12.60;2.97;;;23.70;99.90;;;;;;5010106;28;20451;-65
2022/09/09 10:55:56;;;;;;;23.90;4.80;;;23.80;99.90;;;;;;5009318;28;20494;-66
2022/09/09 10:58:41;;;;;;;19.50;3.77;;;23.80;99.90;;;;;;5009125;28;20426;-65
2022/09/09 11:01:16;;;;;;;13.67;3.00;;;24.10;99.90;;;;;;5010117;28;20413;-66
2022/09/09 11:03:43;;;;;;;13.20;2.23;;;24.30;99.90;;;;;;5009852;28;20405;-66
2022/09/09 11:06:19;;;;;;;13.53;2.40;;;24.40;99.90;;;;;;5009946;28;20508;-66
2022/09/09 11:08:46;;;;;;;4.50;2.10;;;24.40;99.90;;;;;;5008673;28;20534;-66
2022/09/09 11:11:17;;;;;;;11.87;2.10;;;24.50;99.90;;;;;;5009625;28;20546;-66
2022/09/09 11:13:47;;;;;;;8.63;2.77;;;24.40;99.90;;;;;;5009698;28;20814;-67
2022/09/09 11:16:25;;;;;;;8.37;2.27;;;24.40;99.90;;;;;;5009801;28;20407;-66
2022/09/09 11:18:59;;;;;;;12.07;2.93;;;24.40;99.90;;;;;;5008687;28;20535;-66
2022/09/09 11:21:36;;;;;;;7.70;2.13;;;24.50;99.90;;;;;;5009948;28;20482;-66
2022/09/09 11:24:29;;;;;;;10.10;2.70;;;24.50;99.90;;;;;;5009296;28;20413;-66
2022/09/09 11:27:13;;;;;;;9.90;2.53;;;24.60;99.90;;;;;;5007977;28;20978;-67
2022/09/09 11:30:16;;;;;;;11.00;2.40;;;24.60;99.90;;;;;;5012898;28;20431;-67
2022/09/09 11:32:58;;;;;;;6.80;1.73;;;24.70;99.90;;;;;;5012954;28;20968;-66
2022/09/09 11:35:40;;;;;;;21.33;3.20;;;24.70;99.90;;;;;;5012827;28;20917;-66
2022/09/09 11:38:27;;;;;;;14.33;2.23;;;24.80;99.90;;;;;;5012017;28;20430;-67
2022/09/09 11:41:06;;;;;;;27.17;4.13;;;24.80;99.90;;;;;;4984490;28;20440;-67
2022/09/09 11:43:52;;;;;;;10.43;1.80;;;24.90;99.90;;;;;;4989642;28;20470;-67
2022/09/09 11:46:22;;;;;;;7.30;1.50;;;24.50;99.90;;;;;;4994410;28;20855;-66
2022/09/09 11:49:04;;;;;;;7.87;1.80;;;24.50;99.90;;;;;;4988699;28;20463;-66
2022/09/09 11:51:32;;;;;;;5.83;1.60;;;24.50;99.90;;;;;;4993152;28;20408;-65
2022/09/09 11:54:02;;;;;;;6.77;2.13;;;24.30;99.90;;;;;;4991596;28;20550;-66
2022/09/09 11:56:32;;;;;;;31.70;4.00;;;24.10;99.90;;;;;;4989973;28;20428;-65
2022/09/09 11:59:03;;;;;;;5.43;1.83;;;23.90;99.90;;;;;;4989636;28;21144;-66
2022/09/09 12:01:37;;;;;;;17.80;2.33;;;23.90;99.90;;;;;;4990588;28;20519;-65
2022/09/09 12:04:08;;;;;;;12.97;2.23;;;24.10;99.90;;;;;;4989342;28;20443;-65
2022/09/09 12:06:59;;;;;;;8.80;1.57;;;24.30;99.90;;;;;;4984647;28;20420;-65
2022/09/09 12:09:50;;;;;;;8.27;1.93;;;24.40;99.90;;;;;;4991292;28;20427;-65
2022/09/09 12:12:15;;;;;;;7.63;1.67;;;24.30;99.90;;;;;;4989985;28;20988;-65
2022/09/09 12:14:41;;;;;;;28.63;3.27;;;24.40;99.90;;;;;;4992033;28;20500;-64
2022/09/09 12:17:15;;;;;;;4.73;1.70;;;24.30;99.90;;;;;;4991164;28;20260;-65
2022/09/09 12:19:42;;;;;;;4.83;1.57;;;24.40;99.90;;;;;;4991626;28;20188;-66
2022/09/09 12:22:38;;;;;;;3.20;1.40;;;24.50;99.90;;;;;;4991427;28;20444;-66
2022/09/09 12:25:37;;;;;;;22.13;2.80;;;24.40;99.90;;;;;;4989959;28;20498;-65
2022/09/09 12:28:16;;;;;;;15.13;3.13;;;24.40;99.90;;;;;;4988314;28;20955;-65
2022/09/09 12:30:58;;;;;;;10.00;2.27;;;24.30;99.90;;;;;;4992776;28;20672;-65
2022/09/09 12:33:24;;;;;;;8.30;1.50;;;24.30;99.90;;;;;;4992750;28;20479;-66
2022/09/09 12:36:00;;;;;;;11.93;2.40;;;24.20;99.90;;;;;;4992133;28;20411;-66
2022/09/09 12:38:33;;;;;;;5.60;1.27;;;24.20;99.90;;;;;;4990637;28;20451;-66
2022/09/09 12:41:00;;;;;;;19.07;2.60;;;24.00;99.90;;;;;;4992125;28;21172;-66
2022/09/09 12:43:27;;;;;;;8.13;2.60;;;24.10;99.90;;;;;;4992622;28;20412;-66
2022/09/09 12:46:08;;;;;;;6.00;1.57;;;24.00;99.90;;;;;;4992829;28;20440;-64
2022/09/09 12:48:39;;;;;;;3.73;1.70;;;24.20;99.90;;;;;;4991521;28;20539;-65
2022/09/09 12:51:15;;;;;;;6.70;1.63;;;24.20;99.90;;;;;;4992546;28;20412;-65
2022/09/09 12:53:41;;;;;;;26.80;3.50;;;24.30;99.90;;;;;;4992368;28;21359;-65
2022/09/09 12:56:17;;;;;;;4.47;1.23;;;24.10;99.90;;;;;;4992058;28;20408;-66
2022/09/09 12:58:47;;;;;;;11.73;1.47;;;24.10;99.90;;;;;;4991094;28;20275;-66
2022/09/09 13:01:22;;;;;;;6.13;1.30;;;24.00;99.90;;;;;;4993076;28;20817;-66
2022/09/09 13:03:48;;;;;;;4.67;1.67;;;23.90;99.90;;;;;;4991811;28;20430;-66
2022/09/09 13:06:24;;;;;;;6.13;1.77;;;23.90;99.90;;;;;;4991690;28;20904;-66
2022/09/09 13:08:52;;;;;;;8.63;2.23;;;23.80;99.90;;;;;;4990163;28;20200;-66
2022/09/09 13:11:22;;;;;;;5.20;1.43;;;23.70;99.90;;;;;;4989420;28;20433;-66
2022/09/09 13:13:55;;;;;;;25.77;3.23;;;23.70;99.90;;;;;;4992372;28;20467;-66
2022/09/09 13:16:31;;;;;;;25.03;3.30;;;23.50;99.90;;;;;;4992105;28;20443;-66